Time;durP1;ratioP1;P1;durP2;ratioP2;P2;SDS_P1;SDS_P2;PMS_P1;PMS_P2;Temp;Humidity;BMP_temperature;BMP_pressure;BME280_temperature;BME280_humidity;BME280_pressure;Samples;Min_cycle;Max_cycle;Signal;HPM_P1;HPM_P2
2022/03/07 00:01:27;;;;;;;15.55;7.03;;;;;;;;;;5048233;28;20038;-78
2022/03/07 00:03:56;;;;;;;14.38;6.97;;;;;;;;;;5044437;28;20144;-78
2022/03/07 00:06:22;;;;;;;14.15;7.82;;;;;;;;;;5050549;28;20045;-78
2022/03/07 00:08:49;;;;;;;14.90;7.20;;;;;;;;;;5054320;28;20056;-78
2022/03/07 00:11:16;;;;;;;13.45;7.00;;;;;;;;;;5053326;28;20105;-78
2022/03/07 00:13:43;;;;;;;13.68;7.07;;;;;;;;;;5054437;28;20053;-78
2022/03/07 00:16:09;;;;;;;15.95;6.97;;;;;;;;;;5049096;28;20058;-78
2022/03/07 00:18:36;;;;;;;14.70;7.32;;;;;;;;;;5052059;28;20554;-78
2022/03/07 00:21:03;;;;;;;18.48;9.77;;;;;;;;;;5051866;28;20097;-79
2022/03/07 00:23:29;;;;;;;18.52;10.93;;;;;;;;;;5051999;28;20069;-78
2022/03/07 00:25:55;;;;;;;21.33;10.52;;;;;;;;;;5054124;28;20077;-78
2022/03/07 00:28:22;;;;;;;19.23;11.30;;;;;;;;;;5046428;28;20500;-78
2022/03/07 00:30:48;;;;;;;17.20;10.70;;;;;;;;;;5065347;28;20101;-78
2022/03/07 00:33:18;;;;;;;20.25;11.18;;;;;;;;;;5049110;28;20049;-78
2022/03/07 00:35:44;;;;;;;18.60;9.40;;;;;;;;;;5055430;28;20115;-78
2022/03/07 00:38:10;;;;;;;16.75;9.15;;;;;;;;;;5055854;28;20108;-77
2022/03/07 00:40:37;;;;;;;17.40;9.75;;;;;;;;;;5057160;28;20068;-78
2022/03/07 00:43:07;;;;;;;17.33;8.93;;;;;;;;;;5056984;28;20053;-78
2022/03/07 00:45:35;;;;;;;14.25;8.05;;;;;;;;;;5044879;28;20057;-77
2022/03/07 00:48:01;;;;;;;18.23;8.50;;;;;;;;;;5044927;28;20103;-78
2022/03/07 00:50:28;;;;;;;15.80;6.90;;;;;;;;;;5051115;28;20135;-78
2022/03/07 00:52:54;;;;;;;13.50;7.55;;;;;;;;;;5046762;28;20053;-78
2022/03/07 00:55:21;;;;;;;14.55;7.60;;;;;;;;;;5046363;28;20049;-77
2022/03/07 00:57:47;;;;;;;16.55;9.20;;;;;;;;;;5051256;28;20057;-78
2022/03/07 01:00:18;;;;;;;20.38;9.52;;;;;;;;;;5049785;28;20065;-78
2022/03/07 01:02:45;;;;;;;17.95;10.43;;;;;;;;;;5051774;28;20057;-78
2022/03/07 01:05:13;;;;;;;19.17;11.30;;;;;;;;;;5052779;28;20197;-79
2022/03/07 01:07:40;;;;;;;18.60;10.93;;;;;;;;;;5049755;28;20045;-78
2022/03/07 01:10:07;;;;;;;17.10;10.13;;;;;;;;;;5048439;28;20289;-78
2022/03/07 01:12:34;;;;;;;18.60;10.00;;;;;;;;;;5047731;28;21062;-79
2022/03/07 01:15:00;;;;;;;18.88;9.70;;;;;;;;;;5050222;28;20050;-78
2022/03/07 01:17:26;;;;;;;16.02;8.82;;;;;;;;;;5051581;28;20137;-78
2022/03/07 01:19:53;;;;;;;16.40;8.00;;;;;;;;;;5050873;28;20108;-78
2022/03/07 01:22:19;;;;;;;14.00;7.32;;;;;;;;;;5049114;28;20061;-78
2022/03/07 01:24:45;;;;;;;13.35;6.93;;;;;;;;;;5051941;28;20069;-78
2022/03/07 01:27:12;;;;;;;12.63;7.13;;;;;;;;;;5057061;28;20182;-79
2022/03/07 01:29:38;;;;;;;12.43;6.88;;;;;;;;;;5054627;28;20088;-78
2022/03/07 01:32:05;;;;;;;12.93;6.47;;;;;;;;;;5051710;28;20088;-78
2022/03/07 01:34:31;;;;;;;12.57;6.38;;;;;;;;;;5066301;28;20500;-78
2022/03/07 01:36:58;;;;;;;13.20;6.72;;;;;;;;;;5046439;28;20069;-78
2022/03/07 01:39:24;;;;;;;14.32;7.38;;;;;;;;;;5038271;28;20100;-78
2022/03/07 01:41:50;;;;;;;18.55;7.35;;;;;;;;;;5050466;28;20111;-78
2022/03/07 01:44:18;;;;;;;16.10;9.90;;;;;;;;;;5049706;28;20045;-78
2022/03/07 01:46:44;;;;;;;22.73;14.98;;;;;;;;;;5049062;28;20049;-79
2022/03/07 01:49:11;;;;;;;25.77;18.52;;;;;;;;;;5043984;28;20054;-77
2022/03/07 01:51:39;;;;;;;24.52;17.00;;;;;;;;;;5051079;28;20062;-78
2022/03/07 01:54:07;;;;;;;26.83;18.45;;;;;;;;;;5051338;28;20106;-78
2022/03/07 01:56:34;;;;;;;26.92;18.42;;;;;;;;;;5039701;28;20814;-78
2022/03/07 01:59:01;;;;;;;24.00;16.88;;;;;;;;;;5051127;28;20046;-78
2022/03/07 02:01:28;;;;;;;16.50;9.38;;;;;;;;;;5052550;28;20099;-78
2022/03/07 02:03:55;;;;;;;14.35;6.70;;;;;;;;;;5052655;28;20045;-79
2022/03/07 02:06:21;;;;;;;13.05;5.97;;;;;;;;;;5049593;28;20054;-78
2022/03/07 02:08:49;;;;;;;14.30;6.07;;;;;;;;;;5047608;28;20049;-78
2022/03/07 02:11:15;;;;;;;11.57;5.30;;;;;;;;;;5051002;28;20104;-78
2022/03/07 02:13:42;;;;;;;10.80;5.60;;;;;;;;;;5047274;28;20111;-78
2022/03/07 02:16:09;;;;;;;13.57;7.03;;;;;;;;;;5052094;28;20136;-78
2022/03/07 02:18:35;;;;;;;11.50;6.88;;;;;;;;;;5041679;28;20054;-78
2022/03/07 02:21:09;;;;;;;12.35;6.47;;;;;;;;;;5052876;28;20057;-79
2022/03/07 02:23:36;;;;;;;11.70;6.72;;;;;;;;;;5043953;28;21108;-78
2022/03/07 02:26:09;;;;;;;14.43;6.32;;;;;;;;;;5053546;28;20057;-78
2022/03/07 02:28:38;;;;;;;10.00;5.22;;;;;;;;;;5050564;28;20115;-79
2022/03/07 02:31:04;;;;;;;9.73;5.30;;;;;;;;;;5050827;28;20112;-79
2022/03/07 02:33:30;;;;;;;10.60;5.85;;;;;;;;;;5054291;28;20148;-78
2022/03/07 02:35:57;;;;;;;10.35;5.47;;;;;;;;;;5047322;28;20053;-78
2022/03/07 02:38:23;;;;;;;11.68;5.35;;;;;;;;;;5047191;28;20104;-78
2022/03/07 02:40:50;;;;;;;10.57;5.03;;;;;;;;;;5045935;28;20516;-79
2022/03/07 02:43:16;;;;;;;10.77;5.53;;;;;;;;;;5047038;28;20049;-78
2022/03/07 02:45:43;;;;;;;11.50;5.40;;;;;;;;;;5055044;28;20103;-79
2022/03/07 02:48:10;;;;;;;13.05;5.47;;;;;;;;;;5044748;28;20053;-79
2022/03/07 02:50:36;;;;;;;13.35;5.80;;;;;;;;;;5047664;28;20707;-78
2022/03/07 02:53:03;;;;;;;12.18;5.43;;;;;;;;;;5049502;28;20057;-78
2022/03/07 02:55:30;;;;;;;11.68;6.25;;;;;;;;;;5051951;28;20065;-78
2022/03/07 02:57:57;;;;;;;15.02;7.60;;;;;;;;;;5052869;28;20132;-79
2022/03/07 03:00:23;;;;;;;13.93;8.57;;;;;;;;;;5045216;28;20113;-79
2022/03/07 03:02:50;;;;;;;14.35;8.27;;;;;;;;;;5051269;28;20057;-78
2022/03/07 03:05:17;;;;;;;16.33;8.23;;;;;;;;;;5054347;28;20416;-78
2022/03/07 03:07:43;;;;;;;13.70;8.10;;;;;;;;;;5050364;28;20105;-78
2022/03/07 03:10:10;;;;;;;18.20;10.50;;;;;;;;;;5047184;28;20050;-78
2022/03/07 03:12:36;;;;;;;22.15;11.98;;;;;;;;;;5044608;28;20068;-78
2022/03/07 03:15:03;;;;;;;18.42;10.05;;;;;;;;;;5043383;28;20906;-78
2022/03/07 03:17:29;;;;;;;20.90;12.38;;;;;;;;;;5049090;28;20065;-78
2022/03/07 03:19:56;;;;;;;21.35;14.52;;;;;;;;;;5051781;28;21028;-78
2022/03/07 03:22:22;;;;;;;19.33;12.65;;;;;;;;;;5051379;28;20111;-78
2022/03/07 03:24:49;;;;;;;18.13;11.07;;;;;;;;;;5049811;28;20973;-78
2022/03/07 03:27:16;;;;;;;12.98;7.78;;;;;;;;;;5042834;28;20080;-78
2022/03/07 03:29:42;;;;;;;13.73;6.68;;;;;;;;;;5050018;28;20036;-78
2022/03/07 03:32:09;;;;;;;9.88;5.88;;;;;;;;;;5049933;28;20076;-78
2022/03/07 03:34:35;;;;;;;11.85;5.20;;;;;;;;;;5044576;28;20085;-78
2022/03/07 03:37:05;;;;;;;13.07;5.82;;;;;;;;;;5050299;28;20037;-78
2022/03/07 03:39:31;;;;;;;10.48;5.38;;;;;;;;;;5055187;28;20500;-78
2022/03/07 03:41:57;;;;;;;12.77;5.47;;;;;;;;;;5045283;28;20141;-79
2022/03/07 03:44:24;;;;;;;12.95;6.15;;;;;;;;;;5041194;28;20111;-78
2022/03/07 03:46:50;;;;;;;18.02;9.65;;;;;;;;;;5049461;28;20046;-79
2022/03/07 03:49:17;;;;;;;14.98;9.52;;;;;;;;;;5046812;28;20042;-78
2022/03/07 03:51:43;;;;;;;17.65;9.32;;;;;;;;;;5043590;28;20072;-79
2022/03/07 03:54:10;;;;;;;14.77;8.27;;;;;;;;;;5051250;28;20046;-78
2022/03/07 03:56:37;;;;;;;15.25;8.18;;;;;;;;;;5050016;28;20060;-79
2022/03/07 03:59:03;;;;;;;15.98;7.28;;;;;;;;;;5049977;28;20057;-79
2022/03/07 04:01:29;;;;;;;13.98;6.20;;;;;;;;;;5048129;28;20546;-79
2022/03/07 04:03:56;;;;;;;13.55;5.72;;;;;;;;;;5048795;28;20040;-79
2022/03/07 04:06:23;;;;;;;11.80;5.68;;;;;;;;;;5039934;28;20595;-79
2022/03/07 04:08:52;;;;;;;13.35;5.47;;;;;;;;;;5050166;28;20516;-78
2022/03/07 04:11:18;;;;;;;12.30;6.07;;;;;;;;;;5043437;28;20120;-78
2022/03/07 04:13:44;;;;;;;10.38;5.60;;;;;;;;;;5048101;28;20552;-79
2022/03/07 04:16:11;;;;;;;12.30;5.40;;;;;;;;;;5041490;28;20073;-79
2022/03/07 04:18:37;;;;;;;13.35;6.10;;;;;;;;;;5047285;28;20144;-78
2022/03/07 04:21:04;;;;;;;16.25;6.45;;;;;;;;;;5049080;28;20049;-78
2022/03/07 04:23:31;;;;;;;13.82;5.97;;;;;;;;;;5052161;28;20516;-79
2022/03/07 04:25:58;;;;;;;13.32;6.22;;;;;;;;;;5049265;28;20065;-79
2022/03/07 04:28:26;;;;;;;8.93;4.93;;;;;;;;;;5049177;28;20058;-78
2022/03/07 04:30:53;;;;;;;11.35;5.25;;;;;;;;;;5062433;28;20894;-78
2022/03/07 04:33:19;;;;;;;10.65;5.40;;;;;;;;;;5050245;28;20049;-79
2022/03/07 04:35:46;;;;;;;11.30;5.78;;;;;;;;;;5046334;28;20064;-79
2022/03/07 04:38:12;;;;;;;19.45;6.97;;;;;;;;;;5049496;28;20104;-78
2022/03/07 04:40:38;;;;;;;13.13;6.25;;;;;;;;;;5049692;28;20518;-79
2022/03/07 04:43:05;;;;;;;15.43;6.38;;;;;;;;;;5048205;28;20049;-79
2022/03/07 04:45:31;;;;;;;11.35;5.90;;;;;;;;;;5044042;28;20061;-79
2022/03/07 04:47:58;;;;;;;13.05;6.80;;;;;;;;;;5048069;28;20057;-79
2022/03/07 04:50:24;;;;;;;12.48;6.63;;;;;;;;;;5039940;28;20356;-79
2022/03/07 04:52:50;;;;;;;15.90;6.40;;;;;;;;;;5051346;28;20116;-79
2022/03/07 04:55:17;;;;;;;10.80;5.90;;;;;;;;;;5051328;28;20108;-79
2022/03/07 04:57:43;;;;;;;11.57;6.15;;;;;;;;;;5044916;28;20057;-79
2022/03/07 05:00:11;;;;;;;13.40;6.60;;;;;;;;;;5047619;28;20121;-79
2022/03/07 05:02:38;;;;;;;13.40;6.97;;;;;;;;;;5053289;28;20569;-79
2022/03/07 05:05:04;;;;;;;13.98;7.13;;;;;;;;;;5052340;28;20061;-79
2022/03/07 05:07:31;;;;;;;12.27;6.47;;;;;;;;;;5052378;28;20053;-78
2022/03/07 05:09:57;;;;;;;12.82;6.65;;;;;;;;;;5047275;28;20054;-79
2022/03/07 05:12:24;;;;;;;14.55;6.85;;;;;;;;;;5051026;28;20111;-80
2022/03/07 05:14:50;;;;;;;11.05;6.22;;;;;;;;;;5051160;28;20049;-79
2022/03/07 05:17:17;;;;;;;13.02;6.30;;;;;;;;;;5052125;28;20056;-79
2022/03/07 05:19:45;;;;;;;15.93;7.80;;;;;;;;;;5049247;28;20151;-79
2022/03/07 05:22:11;;;;;;;17.73;8.48;;;;;;;;;;5051532;28;21497;-79
2022/03/07 05:24:38;;;;;;;15.27;8.48;;;;;;;;;;5047320;28;20875;-79
2022/03/07 05:27:05;;;;;;;15.15;7.25;;;;;;;;;;5039345;28;20516;-80
2022/03/07 05:29:32;;;;;;;17.92;8.05;;;;;;;;;;5050032;28;20119;-80
2022/03/07 05:31:58;;;;;;;13.45;6.20;;;;;;;;;;5051265;28;20204;-80
2022/03/07 05:34:25;;;;;;;13.43;6.03;;;;;;;;;;5047751;28;20147;-80
2022/03/07 05:36:51;;;;;;;11.82;6.28;;;;;;;;;;5051247;28;20042;-80
2022/03/07 05:39:18;;;;;;;14.77;7.65;;;;;;;;;;5050379;28;20112;-79
2022/03/07 05:41:44;;;;;;;15.05;8.20;;;;;;;;;;5048355;28;20060;-79
2022/03/07 05:44:11;;;;;;;17.75;8.57;;;;;;;;;;5047283;28;20053;-79
2022/03/07 05:46:37;;;;;;;18.48;11.65;;;;;;;;;;5046583;28;20091;-80
2022/03/07 05:49:04;;;;;;;19.48;11.68;;;;;;;;;;5039319;28;20050;-80
2022/03/07 05:51:31;;;;;;;19.98;11.70;;;;;;;;;;5044867;28;20041;-80
2022/03/07 05:53:59;;;;;;;19.35;10.23;;;;;;;;;;5046238;28;20450;-80
2022/03/07 05:56:25;;;;;;;17.45;9.25;;;;;;;;;;5048309;28;20057;-80
2022/03/07 05:58:52;;;;;;;16.67;8.82;;;;;;;;;;5048427;28;20065;-79
2022/03/07 06:01:18;;;;;;;16.70;7.80;;;;;;;;;;5049675;28;20103;-79
2022/03/07 06:03:45;;;;;;;13.27;7.30;;;;;;;;;;5052977;28;20053;-79
2022/03/07 06:06:11;;;;;;;14.70;7.85;;;;;;;;;;5051021;28;20060;-78
2022/03/07 06:08:37;;;;;;;16.10;7.63;;;;;;;;;;5046162;28;20092;-78
2022/03/07 06:11:04;;;;;;;15.77;7.28;;;;;;;;;;5051648;28;20057;-78
2022/03/07 06:13:30;;;;;;;16.80;7.72;;;;;;;;;;5042923;28;20108;-78
2022/03/07 06:15:57;;;;;;;18.30;8.35;;;;;;;;;;5043020;28;20080;-78
2022/03/07 06:18:24;;;;;;;12.73;6.50;;;;;;;;;;5050438;28;21417;-78
2022/03/07 06:20:51;;;;;;;14.07;6.80;;;;;;;;;;5049640;28;20061;-79
2022/03/07 06:23:17;;;;;;;12.88;6.97;;;;;;;;;;5044388;28;20093;-79
2022/03/07 06:25:43;;;;;;;13.70;6.70;;;;;;;;;;5040740;28;20057;-79
2022/03/07 06:28:11;;;;;;;15.67;7.53;;;;;;;;;;5043783;28;20069;-80
2022/03/07 06:30:40;;;;;;;15.90;7.88;;;;;;;;;;5049002;28;20104;-79
2022/03/07 06:33:07;;;;;;;12.77;6.88;;;;;;;;;;5050341;28;20063;-78
2022/03/07 06:35:33;;;;;;;13.60;6.83;;;;;;;;;;5040259;28;20182;-79
2022/03/07 06:38:02;;;;;;;14.27;6.93;;;;;;;;;;5045674;28;20053;-80
2022/03/07 06:40:29;;;;;;;17.88;6.78;;;;;;;;;;5045510;28;20072;-80
2022/03/07 06:42:56;;;;;;;15.10;6.68;;;;;;;;;;5041727;28;20405;-80
2022/03/07 06:45:22;;;;;;;13.25;6.68;;;;;;;;;;5051109;28;20072;-79
2022/03/07 06:47:49;;;;;;;15.15;7.18;;;;;;;;;;5052419;28;20058;-81
2022/03/07 06:50:15;;;;;;;14.18;7.07;;;;;;;;;;5048726;28;20609;-81
2022/03/07 06:52:42;;;;;;;17.40;7.50;;;;;;;;;;5049898;28;20969;-80
2022/03/07 06:55:09;;;;;;;15.82;6.78;;;;;;;;;;5049408;28;20057;-81
2022/03/07 06:57:35;;;;;;;15.75;7.43;;;;;;;;;;5041922;28;20100;-81
2022/03/07 07:00:06;;;;;;;16.08;6.80;;;;;;;;;;5047457;28;20057;-81
2022/03/07 07:02:32;;;;;;;;;;;;;;;;;;5045823;28;20041;-80
2022/03/07 07:04:59;;;;;;;13.68;6.80;;;;;;;;;;5044843;28;46319;-78
2022/03/07 07:07:25;;;;;;;15.48;7.90;;;;;;;;;;5047827;28;20053;-79
2022/03/07 07:09:52;;;;;;;16.85;7.53;;;;;;;;;;5043112;28;20089;-78
2022/03/07 07:12:18;;;;;;;20.48;7.90;;;;;;;;;;5044461;28;20049;-78
2022/03/07 07:14:45;;;;;;;15.80;7.30;;;;;;;;;;5046987;28;20549;-78
2022/03/07 07:17:11;;;;;;;15.55;7.63;;;;;;;;;;5044290;28;20057;-80
2022/03/07 07:19:37;;;;;;;15.65;8.07;;;;;;;;;;5049876;28;20057;-80
2022/03/07 07:22:04;;;;;;;16.92;7.35;;;;;;;;;;5043687;28;20046;-80
2022/03/07 07:24:30;;;;;;;18.55;8.13;;;;;;;;;;5047365;28;20053;-80
2022/03/07 07:26:57;;;;;;;15.55;7.68;;;;;;;;;;5044769;28;20061;-81
2022/03/07 07:29:23;;;;;;;14.07;7.55;;;;;;;;;;5055101;28;20111;-78
2022/03/07 07:31:51;;;;;;;14.65;7.63;;;;;;;;;;5029851;28;20042;-78
2022/03/07 07:34:18;;;;;;;16.52;8.43;;;;;;;;;;5041514;28;20054;-80
2022/03/07 07:36:45;;;;;;;15.98;7.93;;;;;;;;;;5063493;28;20111;-80
2022/03/07 07:39:12;;;;;;;15.82;8.20;;;;;;;;;;5038656;28;20176;-80
2022/03/07 07:41:39;;;;;;;16.88;8.85;;;;;;;;;;5049772;28;20038;-80
2022/03/07 07:44:05;;;;;;;14.88;7.78;;;;;;;;;;5041314;28;20929;-80
2022/03/07 07:46:32;;;;;;;25.95;8.77;;;;;;;;;;5041854;28;20057;-78
2022/03/07 07:48:58;;;;;;;23.10;9.25;;;;;;;;;;5044111;28;20053;-81
2022/03/07 07:51:25;;;;;;;15.80;8.45;;;;;;;;;;5049527;28;20076;-81
2022/03/07 07:53:51;;;;;;;15.88;8.27;;;;;;;;;;5041964;28;20105;-80
2022/03/07 07:56:17;;;;;;;19.38;9.18;;;;;;;;;;5040659;28;20651;-81
2022/03/07 07:58:44;;;;;;;20.05;9.88;;;;;;;;;;5046709;28;20049;-80
2022/03/07 08:01:10;;;;;;;18.33;9.68;;;;;;;;;;5040741;28;20054;-80
2022/03/07 08:03:37;;;;;;;17.45;9.27;;;;;;;;;;5059596;28;20053;-81
2022/03/07 08:06:04;;;;;;;19.27;9.38;;;;;;;;;;5043463;28;20062;-81
2022/03/07 08:08:30;;;;;;;19.40;9.18;;;;;;;;;;5047233;28;20574;-81
2022/03/07 08:10:57;;;;;;;17.15;9.77;;;;;;;;;;5042140;28;20875;-81
2022/03/07 08:13:23;;;;;;;19.60;9.88;;;;;;;;;;5044396;28;20570;-78
2022/03/07 08:15:50;;;;;;;18.73;9.70;;;;;;;;;;5058872;28;20054;-78
2022/03/07 08:18:17;;;;;;;19.85;9.85;;;;;;;;;;5040138;28;20518;-78
2022/03/07 08:20:50;;;;;;;18.15;10.32;;;;;;;;;;5040200;28;20069;-81
2022/03/07 08:23:17;;;;;;;17.85;10.35;;;;;;;;;;5038361;28;20516;-81
2022/03/07 08:25:44;;;;;;;21.55;10.23;;;;;;;;;;5047575;28;20084;-81
2022/03/07 08:28:11;;;;;;;18.90;10.27;;;;;;;;;;5044469;28;20050;-78
2022/03/07 08:30:37;;;;;;;20.77;10.00;;;;;;;;;;5046213;28;20104;-79
2022/03/07 08:33:04;;;;;;;24.95;10.73;;;;;;;;;;5048835;28;20128;-79
2022/03/07 08:35:30;;;;;;;19.63;9.68;;;;;;;;;;5047492;28;20062;-79
2022/03/07 08:37:57;;;;;;;18.20;8.80;;;;;;;;;;5049530;28;20123;-80
2022/03/07 08:40:24;;;;;;;19.50;9.50;;;;;;;;;;5045937;28;20050;-81
2022/03/07 08:42:50;;;;;;;18.90;9.30;;;;;;;;;;5044153;28;20053;-78
2022/03/07 08:45:18;;;;;;;18.80;9.13;;;;;;;;;;5047015;28;20120;-78
2022/03/07 08:47:45;;;;;;;16.27;8.55;;;;;;;;;;5046680;28;20049;-79
2022/03/07 08:50:12;;;;;;;17.88;9.30;;;;;;;;;;5049936;28;20049;-78
2022/03/07 08:52:38;;;;;;;18.50;9.43;;;;;;;;;;5048615;28;20053;-78
2022/03/07 08:55:05;;;;;;;17.40;9.45;;;;;;;;;;5047052;28;20045;-78
2022/03/07 08:57:32;;;;;;;16.75;9.55;;;;;;;;;;5045523;28;20479;-78
2022/03/07 08:59:58;;;;;;;17.55;9.00;;;;;;;;;;5043361;28;20512;-78
2022/03/07 09:02:25;;;;;;;17.27;9.38;;;;;;;;;;5067976;28;20065;-77
2022/03/07 09:04:51;;;;;;;16.63;8.93;;;;;;;;;;5063745;28;20045;-78
2022/03/07 09:07:17;;;;;;;18.42;9.07;;;;;;;;;;5046011;28;20154;-78
2022/03/07 09:09:44;;;;;;;18.83;9.82;;;;;;;;;;5047036;28;20108;-78
2022/03/07 09:12:10;;;;;;;17.65;8.40;;;;;;;;;;5045521;28;20819;-78
2022/03/07 09:14:37;;;;;;;15.05;8.43;;;;;;;;;;5042924;28;20054;-78
2022/03/07 09:17:03;;;;;;;14.90;8.02;;;;;;;;;;5045992;28;20213;-78
2022/03/07 09:19:30;;;;;;;14.35;8.43;;;;;;;;;;5047070;28;20103;-78
2022/03/07 09:21:57;;;;;;;19.33;9.02;;;;;;;;;;5048073;28;20104;-78
2022/03/07 09:24:23;;;;;;;14.75;7.55;;;;;;;;;;5049877;28;20107;-78
2022/03/07 09:26:49;;;;;;;17.70;8.57;;;;;;;;;;5043869;28;20053;-82
2022/03/07 09:29:16;;;;;;;18.73;8.70;;;;;;;;;;5046211;28;20057;-79
2022/03/07 09:31:43;;;;;;;16.23;8.48;;;;;;;;;;5043892;28;20066;-78
2022/03/07 09:34:10;;;;;;;18.15;8.45;;;;;;;;;;5045911;28;20050;-77
2022/03/07 09:36:36;;;;;;;14.13;8.38;;;;;;;;;;5044983;28;20121;-78
2022/03/07 09:39:03;;;;;;;14.65;8.30;;;;;;;;;;5037859;28;20420;-78
2022/03/07 09:41:30;;;;;;;15.68;8.55;;;;;;;;;;5043903;28;21713;-78
2022/03/07 09:43:56;;;;;;;13.02;8.00;;;;;;;;;;5039183;28;20573;-77
2022/03/07 09:46:23;;;;;;;18.30;9.15;;;;;;;;;;5044643;28;20058;-77
2022/03/07 09:48:49;;;;;;;16.10;9.00;;;;;;;;;;5046581;28;20504;-77
2022/03/07 09:51:15;;;;;;;17.40;9.93;;;;;;;;;;5043567;28;20500;-78
2022/03/07 09:53:43;;;;;;;19.35;10.23;;;;;;;;;;5036870;28;20054;-77
2022/03/07 09:56:09;;;;;;;17.83;8.95;;;;;;;;;;5057744;28;20124;-77
2022/03/07 09:58:36;;;;;;;14.50;7.78;;;;;;;;;;5049557;28;20544;-77
2022/03/07 10:01:09;;;;;;;16.10;7.53;;;;;;;;;;5044997;28;20057;-77
2022/03/07 10:03:36;;;;;;;12.98;7.22;;;;;;;;;;5045142;28;20088;-77
2022/03/07 10:06:09;;;;;;;11.98;6.57;;;;;;;;;;5037590;28;20488;-76
2022/03/07 10:08:36;;;;;;;11.68;6.80;;;;;;;;;;5042454;28;20131;-78
2022/03/07 10:11:06;;;;;;;10.27;6.30;;;;;;;;;;5044647;28;20107;-76
2022/03/07 10:13:33;;;;;;;10.27;5.38;;;;;;;;;;5038340;28;20053;-77
2022/03/07 10:16:01;;;;;;;10.10;5.85;;;;;;;;;;5048703;28;20131;-77
2022/03/07 10:18:29;;;;;;;10.02;5.15;;;;;;;;;;5042413;28;20077;-77
2022/03/07 10:21:00;;;;;;;10.50;5.43;;;;;;;;;;5045326;28;20054;-77
2022/03/07 10:23:27;;;;;;;11.88;6.13;;;;;;;;;;5043769;28;20054;-78
2022/03/07 10:26:03;;;;;;;11.32;5.88;;;;;;;;;;5055711;28;20050;-77
2022/03/07 10:28:34;;;;;;;11.00;5.85;;;;;;;;;;5041490;28;20057;-77
2022/03/07 10:31:01;;;;;;;;;;;;;;;;;;5054056;28;20653;-77
2022/03/07 10:33:27;;;;;;;10.02;5.38;;;;;;;;;;5062782;28;48136;-75
2022/03/07 10:35:53;;;;;;;7.97;4.82;;;;;;;;;;5047007;28;20562;-76
2022/03/07 10:38:22;;;;;;;8.25;5.18;;;;;;;;;;5046944;28;20092;-76
2022/03/07 10:40:53;;;;;;;8.25;4.75;;;;;;;;;;5040415;28;20728;-76
2022/03/07 10:43:20;;;;;;;8.57;4.70;;;;;;;;;;5040333;28;20527;-76
2022/03/07 10:45:49;;;;;;;7.32;4.47;;;;;;;;;;5043476;28;20062;-77
2022/03/07 10:48:17;;;;;;;9.90;5.65;;;;;;;;;;5042737;28;20049;-76
2022/03/07 10:50:52;;;;;;;10.35;6.10;;;;;;;;;;5039890;28;20254;-77
2022/03/07 10:53:19;;;;;;;9.30;5.40;;;;;;;;;;5035190;28;20104;-76
2022/03/07 10:55:53;;;;;;;9.02;5.05;;;;;;;;;;5043889;28;20058;-75
2022/03/07 10:58:20;;;;;;;8.75;5.10;;;;;;;;;;5044572;28;20140;-76
2022/03/07 11:00:51;;;;;;;11.52;5.95;;;;;;;;;;5046892;28;20052;-75
2022/03/07 11:03:22;;;;;;;8.40;5.57;;;;;;;;;;5048487;28;20072;-77
2022/03/07 11:05:49;;;;;;;8.35;5.05;;;;;;;;;;5038847;28;20795;-77
2022/03/07 11:08:16;;;;;;;14.60;5.32;;;;;;;;;;5051349;28;20065;-77
2022/03/07 11:10:45;;;;;;;8.98;5.30;;;;;;;;;;5045807;28;20116;-77
2022/03/07 11:13:12;;;;;;;8.38;5.40;;;;;;;;;;5041142;28;20680;-76
2022/03/07 11:15:40;;;;;;;9.77;5.70;;;;;;;;;;5042277;28;20100;-77
2022/03/07 11:18:08;;;;;;;9.95;5.50;;;;;;;;;;5044302;28;20111;-77
2022/03/07 11:20:35;;;;;;;9.60;5.63;;;;;;;;;;5046249;28;20049;-77
2022/03/07 11:23:01;;;;;;;13.35;5.88;;;;;;;;;;5047159;28;20057;-75
2022/03/07 11:25:28;;;;;;;11.27;6.32;;;;;;;;;;5046361;28;20594;-75
2022/03/07 11:27:55;;;;;;;8.63;4.65;;;;;;;;;;5045099;28;20167;-75
2022/03/07 11:30:23;;;;;;;7.45;4.50;;;;;;;;;;5044175;28;20053;-75
2022/03/07 11:32:50;;;;;;;8.07;4.38;;;;;;;;;;5047320;28;20046;-76
2022/03/07 11:35:17;;;;;;;8.65;4.60;;;;;;;;;;5045217;28;20877;-76
2022/03/07 11:37:44;;;;;;;8.75;4.38;;;;;;;;;;5046857;28;20061;-76
2022/03/07 11:40:18;;;;;;;8.68;4.40;;;;;;;;;;5044931;28;20604;-76
2022/03/07 11:42:44;;;;;;;8.50;4.70;;;;;;;;;;5042917;28;20532;-76
2022/03/07 11:45:18;;;;;;;8.80;4.43;;;;;;;;;;5044335;28;20119;-76
2022/03/07 11:47:46;;;;;;;6.63;3.88;;;;;;;;;;5040628;28;20104;-74
2022/03/07 11:50:15;;;;;;;7.10;4.07;;;;;;;;;;5043280;28;20061;-77
2022/03/07 11:52:42;;;;;;;8.07;3.97;;;;;;;;;;5044470;28;20680;-76
2022/03/07 11:55:10;;;;;;;7.75;3.90;;;;;;;;;;5050040;28;20053;-77
2022/03/07 11:57:41;;;;;;;7.88;4.22;;;;;;;;;;5058227;28;20057;-75
2022/03/07 12:00:12;;;;;;;8.88;4.53;;;;;;;;;;5041983;28;20049;-76
2022/03/07 12:02:39;;;;;;;8.60;4.20;;;;;;;;;;5045077;28;20491;-76
2022/03/07 12:05:17;;;;;;;8.48;4.43;;;;;;;;;;5036735;28;20061;-76
2022/03/07 12:07:44;;;;;;;8.18;4.30;;;;;;;;;;5044240;28;20108;-78
2022/03/07 12:10:10;;;;;;;8.05;4.53;;;;;;;;;;5045333;28;20096;-75
2022/03/07 12:12:37;;;;;;;10.73;5.55;;;;;;;;;;5058680;28;20049;-76
2022/03/07 12:15:21;;;;;;;9.70;4.75;;;;;;;;;;5034942;28;20057;-75
2022/03/07 12:17:52;;;;;;;9.93;4.95;;;;;;;;;;5040437;28;20053;-76
2022/03/07 12:20:18;;;;;;;9.90;4.50;;;;;;;;;;5057787;28;20563;-76
2022/03/07 12:22:45;;;;;;;11.90;5.60;;;;;;;;;;5042477;28;20103;-76
2022/03/07 12:25:11;;;;;;;9.63;5.32;;;;;;;;;;5042347;28;21111;-76
2022/03/07 12:27:39;;;;;;;13.38;5.68;;;;;;;;;;5059646;28;20049;-76
2022/03/07 12:30:07;;;;;;;8.82;5.70;;;;;;;;;;5044956;28;20556;-76
2022/03/07 12:32:34;;;;;;;11.38;5.47;;;;;;;;;;5041288;28;20565;-76
2022/03/07 12:35:01;;;;;;;14.35;6.05;;;;;;;;;;5045814;28;20095;-76
2022/03/07 12:37:28;;;;;;;11.15;6.03;;;;;;;;;;5043682;28;20076;-76
2022/03/07 12:39:54;;;;;;;11.77;6.18;;;;;;;;;;5055173;28;20896;-75
2022/03/07 12:42:25;;;;;;;17.05;5.65;;;;;;;;;;5045193;28;20909;-76
2022/03/07 12:44:51;;;;;;;;;;;;;;;;;;5043190;28;20084;-75
2022/03/07 12:47:24;;;;;;;10.27;5.78;;;;;;;;;;5050755;28;47008;-76
2022/03/07 12:49:51;;;;;;;8.60;5.60;;;;;;;;;;5038741;28;20057;-76
2022/03/07 12:52:21;;;;;;;10.23;6.30;;;;;;;;;;5043408;28;20104;-76
2022/03/07 12:54:50;;;;;;;15.57;6.50;;;;;;;;;;5042270;28;20058;-76
2022/03/07 12:57:17;;;;;;;10.80;5.88;;;;;;;;;;5035936;28;20054;-75
2022/03/07 12:59:47;;;;;;;9.65;5.63;;;;;;;;;;5043952;28;20574;-76
2022/03/07 13:02:13;;;;;;;12.95;6.07;;;;;;;;;;5045958;28;20963;-76
2022/03/07 13:04:40;;;;;;;12.90;5.93;;;;;;;;;;5035182;28;20060;-77
2022/03/07 13:07:08;;;;;;;10.23;5.90;;;;;;;;;;5040380;28;20054;-77
2022/03/07 13:09:35;;;;;;;9.05;6.00;;;;;;;;;;5046414;28;20058;-76
2022/03/07 13:12:06;;;;;;;11.00;6.07;;;;;;;;;;5042483;28;20133;-77
2022/03/07 13:14:34;;;;;;;9.85;5.20;;;;;;;;;;5051008;28;20056;-77
2022/03/07 13:17:05;;;;;;;8.70;5.40;;;;;;;;;;5048556;28;20187;-77
2022/03/07 13:19:31;;;;;;;10.50;5.13;;;;;;;;;;5059966;28;20614;-77
2022/03/07 13:21:58;;;;;;;10.07;5.55;;;;;;;;;;5049304;28;20053;-77
2022/03/07 13:24:25;;;;;;;9.40;5.45;;;;;;;;;;5041952;28;21014;-77
2022/03/07 13:26:58;;;;;;;8.50;5.43;;;;;;;;;;5042345;28;20893;-76
2022/03/07 13:29:26;;;;;;;8.82;5.60;;;;;;;;;;5045144;28;20061;-76
2022/03/07 13:31:54;;;;;;;8.68;5.05;;;;;;;;;;5065274;28;20113;-76
2022/03/07 13:34:21;;;;;;;10.90;5.30;;;;;;;;;;5047484;28;20131;-77
2022/03/07 13:36:52;;;;;;;9.23;5.05;;;;;;;;;;5047917;28;20516;-77
2022/03/07 13:39:19;;;;;;;10.45;4.97;;;;;;;;;;5054192;28;20111;-78
2022/03/07 13:42:00;;;;;;;8.48;5.07;;;;;;;;;;5041265;28;20586;-76
2022/03/07 13:44:31;;;;;;;9.00;5.15;;;;;;;;;;5051535;28;20053;-78
2022/03/07 13:47:07;;;;;;;7.82;5.22;;;;;;;;;;5048411;28;20076;-78
2022/03/07 13:49:48;;;;;;;10.50;5.22;;;;;;;;;;5049253;28;20092;-77
2022/03/07 13:52:14;;;;;;;9.98;5.30;;;;;;;;;;5049481;28;20135;-77
2022/03/07 13:54:41;;;;;;;11.25;5.28;;;;;;;;;;5048592;28;20107;-77
2022/03/07 13:57:29;;;;;;;7.00;4.70;;;;;;;;;;5045553;28;20064;-77
2022/03/07 13:59:55;;;;;;;;;;;;;;;;;;5050320;28;20897;-77
2022/03/07 14:02:22;;;;;;;9.50;4.68;;;;;;;;;;5051579;28;44932;-77
2022/03/07 14:04:59;;;;;;;8.80;4.30;;;;;;;;;;5049133;28;20057;-78
2022/03/07 14:07:27;;;;;;;11.10;4.70;;;;;;;;;;5046112;28;20539;-77
2022/03/07 14:10:13;;;;;;;13.63;4.88;;;;;;;;;;5042339;28;20058;-78
2022/03/07 14:12:41;;;;;;;10.35;4.50;;;;;;;;;;5046502;28;20057;-77
2022/03/07 14:15:33;;;;;;;10.45;5.28;;;;;;;;;;5043422;28;20057;-77
2022/03/07 14:18:01;;;;;;;12.55;4.45;;;;;;;;;;5048568;28;20056;-77
2022/03/07 14:20:30;;;;;;;8.15;4.22;;;;;;;;;;5062111;28;20045;-76
2022/03/07 14:23:03;;;;;;;14.75;5.03;;;;;;;;;;5044404;28;20524;-77
2022/03/07 14:25:29;;;;;;;7.32;4.50;;;;;;;;;;5050097;28;20053;-77
2022/03/07 14:27:56;;;;;;;7.63;4.50;;;;;;;;;;5044599;28;20053;-78
2022/03/07 14:30:23;;;;;;;8.00;4.50;;;;;;;;;;5046825;28;20507;-78
2022/03/07 14:32:49;;;;;;;7.68;4.25;;;;;;;;;;5034027;28;20533;-78
2022/03/07 14:35:16;;;;;;;6.32;3.63;;;;;;;;;;5049845;28;20065;-76